Terminal Aerodrome Forecast
Issued by NWS

Current Version | Previous Version | Text Only | Print | Product List | Glossary On
Versions: 1 2 3 4 5 6 7 8 9 10 11 12 13 14 15 16 17 18 19 20 21 22 23 24 25 26 27 28 29 30
000
FTUS44 KHGX 300521
TAFUTS
TAF
KUTS 300521Z 3006/3106 00000KT P6SM SCT015
      TEMPO 3006/3008 BKN015
     FM301500 13008KT P6SM SCT035
     FM310300 14005KT P6SM SCT100=

USA.gov is the U.S. government's official web portal to all federal, state and local government web resources and services.